CYPX

Puvirnituq Airport

Puvirnituq, Quebec, Canada
METAR CYPX 191800Z AUTO 16012KT 9SM SCT041 OVC110 05/M03 A3006 RMK SLP182
Observed Flight Rules
Sep-19 @ 18:00 UTC (49 minutes ago) Visual Flight Rules
Wind Visibility Clouds
160° at 12 knots 9 miles
  • Scattered at 4,100' AGL
  • Overcast at 11,000' AGL
Temperatures Readings
Current 5°C / 41°F
Dewpoint -3°C / 27°F
Humidity 57%
Altimeter 30.06" Hg
Pressure 1018.2 hPa
Elevation 23
METAR CYPX 191800Z AUTO 16012KT 9SM SCT041 OVC110 05/M03 A3006 RMK SLP182
Observed Flight Rules
Sep-19 @ 18:00 UTC
(49 minutes ago)
VFR
Wind Visibility
160° at 12 knots 9 miles
Clouds
  • Scattered at 4,100' AGL
  • Overcast at 11,000' AGL
Temperature Dewpoint
5°C / 41°F -3°C / 27°F
Humidity Altimeter Pressure
57% 30.06" Hg 1018.2 hPa